Terminal Aerodrome Forecast
Issued by NWS

Home | Current Version | Previous Version | Text Only | Print | Product List | Glossary On
Versions: 1 2 3 4 5 6 7 8 9 10 11 12 13 14 15 16 17 18 19
969
FTUS46 KSEW 121120
TAFBFI
TAF
KBFI 121120Z 1212/1312 12004KT P6SM BKN200
     FM122000 VRB03KT P6SM SCT080 SCT150=

USA.gov is the U.S. government's official web portal to all federal, state and local government web resources and services.